createdAt,value
2022-08-28T00:00:41.052Z,75.97
2022-08-28T00:02:58.186Z,76.23
2022-08-28T00:05:15.287Z,77.63
2022-08-28T00:07:32.630Z,77.46
2022-08-28T00:09:50.996Z,76.12
2022-08-28T00:12:08.218Z,77.82
2022-08-28T00:14:25.278Z,77.45
2022-08-28T00:16:42.331Z,77.66
2022-08-28T00:18:59.748Z,77.98
2022-08-28T00:21:17.853Z,76.39
2022-08-28T00:23:42.707Z,77.27
2022-08-28T00:26:00.295Z,78.00
2022-08-28T00:28:24.075Z,77.74
2022-08-28T00:30:41.480Z,78.03
2022-08-28T00:32:58.817Z,78.13
2022-08-28T00:35:16.091Z,78.06
2022-08-28T00:37:33.192Z,78.13
2022-08-28T00:39:50.206Z,78.39
2022-08-28T00:42:07.273Z,77.33
2022-08-28T00:44:24.215Z,77.00
2022-08-28T00:46:41.346Z,78.19
2022-08-28T00:48:58.426Z,77.24
2022-08-28T00:51:16.004Z,78.69
2022-08-28T00:53:33.249Z,78.08
2022-08-28T00:55:50.644Z,77.66
2022-08-28T00:58:08.194Z,78.77
2022-08-28T01:00:25.347Z,78.55
2022-08-28T01:02:42.609Z,78.70
2022-08-28T01:04:59.708Z,77.95
2022-08-28T01:07:17.800Z,76.91
2022-08-28T01:09:34.944Z,77.51
2022-08-28T01:11:52.091Z,78.39
2022-08-28T01:14:09.195Z,77.01
2022-08-28T01:16:28.370Z,78.58
2022-08-28T01:18:49.406Z,76.89
2022-08-28T01:21:06.465Z,77.83
2022-08-28T01:23:23.561Z,77.22
2022-08-28T01:25:40.656Z,77.68
2022-08-28T01:27:57.652Z,76.70
2022-08-28T01:30:14.718Z,77.03
2022-08-28T01:32:32.103Z,76.91
2022-08-28T01:34:49.400Z,78.41
2022-08-28T01:37:06.439Z,78.10
2022-08-28T01:39:23.900Z,78.18
2022-08-28T01:41:41.383Z,80.37
2022-08-28T01:43:58.500Z,80.31
2022-08-28T01:46:16.628Z,80.26
2022-08-28T01:48:33.760Z,78.86
2022-08-28T01:50:50.747Z,80.19
2022-08-28T01:53:07.782Z,79.60
2022-08-28T01:55:30.513Z,80.28
2022-08-28T01:57:47.486Z,78.35
2022-08-28T02:00:04.534Z,80.41
2022-08-28T02:02:22.022Z,80.58
2022-08-28T02:04:39.300Z,80.39
2022-08-28T02:06:56.289Z,79.62
2022-08-28T02:09:14.852Z,79.49
2022-08-28T02:11:33.274Z,78.42
2022-08-28T02:13:50.759Z,78.34
2022-08-28T02:16:08.182Z,78.78
2022-08-28T02:18:25.175Z,79.12
2022-08-28T02:20:42.205Z,80.13
2022-08-28T02:22:59.545Z,78.39
2022-08-28T02:25:16.860Z,80.24
2022-08-28T02:27:35.248Z,79.49
2022-08-28T02:29:52.222Z,79.92
2022-08-28T02:32:09.303Z,79.21
2022-08-28T02:34:27.238Z,78.95
2022-08-28T02:36:44.648Z,80.25
2022-08-28T02:39:01.697Z,79.25
2022-08-28T02:41:20.126Z,79.86
2022-08-28T02:43:37.495Z,80.56
2022-08-28T02:45:55.627Z,80.86
2022-08-28T02:48:16.954Z,80.06
2022-08-28T02:50:34.870Z,80.22
2022-08-28T02:52:51.997Z,79.89
2022-08-28T02:55:09.049Z,79.21
2022-08-28T02:57:26.422Z,79.19
2022-08-28T02:59:43.840Z,79.22
2022-08-28T03:02:00.936Z,79.08
2022-08-28T03:04:17.856Z,78.12
2022-08-28T03:06:35.150Z,80.51
2022-08-28T03:08:52.198Z,79.43
2022-08-28T03:11:09.265Z,80.26
2022-08-28T03:13:27.294Z,79.20
2022-08-28T03:15:45.526Z,79.17
2022-08-28T03:18:02.666Z,78.77
2022-08-28T03:20:28.587Z,80.95
2022-08-28T03:22:45.696Z,81.16
2022-08-28T03:25:02.800Z,82.07
2022-08-28T03:27:20.787Z,81.76
2022-08-28T03:29:37.870Z,80.45
2022-08-28T03:31:54.948Z,79.91
2022-08-28T03:34:11.960Z,80.06
2022-08-28T03:36:28.899Z,80.05
2022-08-28T03:38:45.879Z,79.96
2022-08-28T03:41:03.125Z,80.63
2022-08-28T03:43:20.165Z,80.50
2022-08-28T03:45:37.281Z,80.65
2022-08-28T03:47:54.641Z,81.93
2022-08-28T03:50:11.974Z,81.80
2022-08-28T03:52:29.665Z,81.03
2022-08-28T03:54:46.928Z,82.21
2022-08-28T03:57:04.236Z,81.53
2022-08-28T03:59:21.150Z,81.81
2022-08-28T04:01:43.227Z,81.49
2022-08-28T04:04:00.296Z,79.87
2022-08-28T04:06:17.276Z,80.12
2022-08-28T04:08:34.618Z,80.96
2022-08-28T04:10:51.891Z,81.29
2022-08-28T04:13:09.121Z,81.87
2022-08-28T04:15:26.300Z,81.66
2022-08-28T04:17:43.279Z,80.32
2022-08-28T04:20:01.396Z,82.36
2022-08-28T04:22:18.538Z,81.28
2022-08-28T04:24:35.879Z,80.88
2022-08-28T04:26:53.258Z,80.28
2022-08-28T04:29:10.509Z,81.80
2022-08-28T04:31:31.621Z,80.53
2022-08-28T04:33:49.684Z,79.66
2022-08-28T04:36:06.748Z,81.32
2022-08-28T04:38:24.044Z,81.95
2022-08-28T04:40:41.076Z,80.05
2022-08-28T04:42:58.143Z,79.82
2022-08-28T04:45:16.144Z,81.18
2022-08-28T04:47:33.501Z,80.58
2022-08-28T04:49:50.526Z,80.62
2022-08-28T04:52:07.602Z,81.14
2022-08-28T04:54:24.874Z,81.90
2022-08-28T04:56:42.900Z,80.31
2022-08-28T04:59:00.309Z,81.70
2022-08-28T05:01:17.632Z,80.42
2022-08-28T05:03:34.597Z,80.62
2022-08-28T05:05:51.692Z,78.73
2022-08-28T05:08:08.845Z,80.04
2022-08-28T05:10:26.097Z,80.46
2022-08-28T05:12:43.023Z,79.57
2022-08-28T05:15:00.103Z,79.85
2022-08-28T05:17:18.014Z,78.00
2022-08-28T05:19:35.057Z,79.93
2022-08-28T05:21:52.362Z,78.96
2022-08-28T05:24:09.689Z,79.30
2022-08-28T05:26:27.205Z,80.20
2022-08-28T05:28:46.657Z,79.86
2022-08-28T05:31:03.599Z,80.01
2022-08-28T05:33:20.705Z,79.74
2022-08-28T05:35:37.992Z,79.61
2022-08-28T05:37:55.031Z,79.56
2022-08-28T05:40:12.084Z,80.06
2022-08-28T05:42:31.047Z,79.56
2022-08-28T05:44:49.237Z,78.49
2022-08-28T05:47:11.670Z,79.02
2022-08-28T05:49:28.996Z,78.04
2022-08-28T05:51:46.523Z,79.41
2022-08-28T05:54:03.841Z,79.51
2022-08-28T05:56:21.105Z,78.17
2022-08-28T05:58:38.157Z,77.04
2022-08-28T06:00:55.124Z,76.81
2022-08-28T06:03:12.418Z,77.59
2022-08-28T06:05:29.440Z,76.59
2022-08-28T06:07:46.774Z,77.78
2022-08-28T06:10:03.753Z,77.35
2022-08-28T06:12:23.218Z,78.13
2022-08-28T06:14:40.588Z,79.19
2022-08-28T06:16:58.272Z,77.55
2022-08-28T06:19:16.411Z,77.87
2022-08-28T06:21:33.685Z,76.56
2022-08-28T06:23:50.970Z,77.37
2022-08-28T06:26:09.267Z,76.17
2022-08-28T06:28:26.623Z,74.63
2022-08-28T06:30:52.844Z,75.22
2022-08-28T06:33:20.530Z,75.07
2022-08-28T06:35:37.449Z,74.95
2022-08-28T06:37:54.924Z,73.49
2022-08-28T06:40:12.271Z,74.09
2022-08-28T06:42:29.300Z,74.24
2022-08-28T06:44:46.567Z,73.16
2022-08-28T06:47:03.569Z,73.18
2022-08-28T06:49:20.956Z,73.65
2022-08-28T06:51:38.996Z,73.21
2022-08-28T06:53:56.253Z,72.26
2022-08-28T06:56:13.732Z,72.52
2022-08-28T06:58:43.439Z,72.30
2022-08-28T07:01:07.294Z,71.77
2022-08-28T07:03:24.414Z,72.33
2022-08-28T07:05:41.401Z,71.72
2022-08-28T07:07:58.419Z,70.75
2022-08-28T07:10:15.687Z,70.53
2022-08-28T07:12:32.640Z,71.50
2022-08-28T07:14:49.685Z,70.02
2022-08-28T07:17:06.739Z,70.06
2022-08-28T07:19:23.726Z,69.39
2022-08-28T07:21:40.670Z,69.31
2022-08-28T07:23:57.778Z,69.22
2022-08-28T07:26:14.735Z,68.68
2022-08-28T07:28:31.683Z,68.85
2022-08-28T07:30:49.018Z,68.76
2022-08-28T07:33:06.343Z,67.42
2022-08-28T07:35:23.444Z,67.84
2022-08-28T07:37:41.010Z,66.42
2022-08-28T07:39:58.274Z,66.13
2022-08-28T07:42:16.235Z,65.96
2022-08-28T07:44:33.320Z,66.41
2022-08-28T07:46:50.375Z,65.79
2022-08-28T07:49:07.367Z,65.01
2022-08-28T07:51:24.734Z,64.70
2022-08-28T07:53:41.631Z,65.25
2022-08-28T07:55:59.014Z,63.76
2022-08-28T07:58:16.014Z,63.15
2022-08-28T08:00:32.974Z,63.89
2022-08-28T08:02:50.892Z,63.15
2022-08-28T08:05:08.187Z,62.36
2022-08-28T08:07:25.100Z,63.56
2022-08-28T08:09:42.380Z,62.84
2022-08-28T08:12:00.238Z,61.93
2022-08-28T08:14:17.555Z,62.32
2022-08-28T08:16:34.803Z,61.14
2022-08-28T08:18:51.922Z,61.61
2022-08-28T08:21:09.198Z,60.54
2022-08-28T08:23:26.144Z,60.29
2022-08-28T08:25:43.406Z,61.15
2022-08-28T08:28:00.698Z,59.19
2022-08-28T08:30:17.988Z,60.72
2022-08-28T08:32:36.074Z,60.57
2022-08-28T08:34:54.380Z,61.65
2022-08-28T08:37:11.351Z,61.61
2022-08-28T08:39:28.635Z,60.45
2022-08-28T08:41:49.097Z,61.24
2022-08-28T08:44:06.457Z,61.64
2022-08-28T08:46:23.458Z,60.05
2022-08-28T08:48:40.439Z,60.01
2022-08-28T08:50:57.753Z,60.18
2022-08-28T08:53:14.835Z,59.15
2022-08-28T08:55:32.144Z,58.96
2022-08-28T08:57:49.425Z,58.12
2022-08-28T09:00:06.601Z,56.67
2022-08-28T09:02:26.351Z,56.99
2022-08-28T09:04:48.553Z,55.17
2022-08-28T09:07:06.018Z,53.87
2022-08-28T09:09:23.534Z,55.18
2022-08-28T09:11:40.570Z,55.82
2022-08-28T09:13:57.973Z,55.31
2022-08-28T09:16:15.078Z,54.05
2022-08-28T09:18:32.422Z,53.65
2022-08-28T09:20:49.392Z,55.56
2022-08-28T09:23:13.147Z,54.99
2022-08-28T09:25:31.074Z,53.07
2022-08-28T09:27:48.044Z,53.37
2022-08-28T09:30:08.053Z,53.21
2022-08-28T09:32:25.461Z,52.04
2022-08-28T09:34:44.811Z,52.77
2022-08-28T09:37:01.862Z,52.02
2022-08-28T09:39:18.952Z,51.57
2022-08-28T09:41:35.965Z,52.26
2022-08-28T09:43:52.969Z,52.44
2022-08-28T09:46:10.046Z,51.61
2022-08-28T09:48:27.423Z,52.03
2022-08-28T09:50:44.406Z,51.06
2022-08-28T09:53:01.470Z,50.17
2022-08-28T09:55:18.818Z,51.29
2022-08-28T09:57:36.055Z,49.79
2022-08-28T09:59:53.079Z,50.09
2022-08-28T10:02:10.521Z,50.12
2022-08-28T10:04:27.733Z,49.81
2022-08-28T10:06:44.778Z,50.62
2022-08-28T10:09:01.896Z,50.53
2022-08-28T10:11:19.687Z,51.04
2022-08-28T10:13:36.940Z,51.24
2022-08-28T10:15:54.057Z,51.34
2022-08-28T10:18:11.304Z,49.47
2022-08-28T10:20:28.627Z,50.60
2022-08-28T10:22:46.704Z,50.57
2022-08-28T10:25:03.709Z,50.24
2022-08-28T10:27:20.765Z,51.24
2022-08-28T10:29:39.115Z,50.62
2022-08-28T10:31:56.679Z,49.09
2022-08-28T10:34:13.722Z,49.93
2022-08-28T10:36:34.054Z,49.35
2022-08-28T10:38:53.632Z,47.98
2022-08-28T10:41:11.061Z,48.76
2022-08-28T10:43:28.419Z,49.71
2022-08-28T10:45:45.473Z,48.53
2022-08-28T10:48:02.553Z,48.08
2022-08-28T10:50:19.638Z,48.20
2022-08-28T10:52:37.605Z,48.37
2022-08-28T10:54:54.654Z,47.64
2022-08-28T10:57:11.644Z,48.28
2022-08-28T10:59:28.627Z,48.28
2022-08-28T11:01:45.792Z,48.50
2022-08-28T11:04:02.857Z,46.23
2022-08-28T11:06:21.113Z,46.57
2022-08-28T11:08:38.556Z,47.28
2022-08-28T11:10:55.574Z,48.12
2022-08-28T11:13:12.792Z,46.94
2022-08-28T11:15:36.823Z,46.10
2022-08-28T11:17:54.706Z,46.45
2022-08-28T11:20:11.643Z,46.47
2022-08-28T11:22:28.965Z,47.17
2022-08-28T11:24:47.805Z,48.68
2022-08-28T11:27:04.782Z,48.58
2022-08-28T11:29:22.748Z,48.98
2022-08-28T11:31:39.891Z,48.97
2022-08-28T11:33:56.965Z,48.64
2022-08-28T11:36:14.261Z,47.91
2022-08-28T11:38:31.472Z,48.46
2022-08-28T11:40:48.876Z,47.75
2022-08-28T11:43:06.192Z,49.04
2022-08-28T11:45:23.240Z,49.19
2022-08-28T11:47:40.505Z,49.89
2022-08-28T11:49:57.883Z,50.27
2022-08-28T11:52:14.884Z,49.89
2022-08-28T11:54:31.961Z,48.41
2022-08-28T11:56:48.939Z,48.71
2022-08-28T11:59:08.130Z,47.69
2022-08-28T12:01:27.298Z,47.22
2022-08-28T12:03:44.565Z,47.00
2022-08-28T12:06:01.483Z,46.35
2022-08-28T12:08:18.813Z,46.61
2022-08-28T12:10:35.932Z,46.99
2022-08-28T12:12:53.231Z,47.90
2022-08-28T12:15:10.766Z,48.08
2022-08-28T12:17:31.102Z,48.37
2022-08-28T12:19:55.468Z,47.51
2022-08-28T12:22:13.198Z,47.36
2022-08-28T12:24:30.522Z,47.55
2022-08-28T12:26:47.829Z,47.46
2022-08-28T12:29:05.226Z,47.93
2022-08-28T12:31:22.632Z,47.65
2022-08-28T12:33:39.574Z,47.37
2022-08-28T12:35:56.570Z,47.64
2022-08-28T12:38:13.862Z,48.20
2022-08-28T12:40:31.204Z,47.62
2022-08-28T12:42:51.984Z,46.04
2022-08-28T12:45:11.387Z,45.96
2022-08-28T12:47:28.454Z,45.26
2022-08-28T12:49:45.700Z,45.24
2022-08-28T12:52:04.609Z,44.54
2022-08-28T12:54:22.653Z,42.74
2022-08-28T12:56:39.691Z,43.46
2022-08-28T12:58:56.730Z,43.91
2022-08-28T13:01:13.813Z,44.13
2022-08-28T13:03:31.149Z,42.84
2022-08-28T13:05:48.199Z,42.30
2022-08-28T13:08:05.192Z,41.63
2022-08-28T13:10:22.300Z,43.25
2022-08-28T13:12:55.863Z,42.26
2022-08-28T13:15:14.671Z,41.73
2022-08-28T13:17:41.493Z,40.81
2022-08-28T13:19:58.606Z,41.87
2022-08-28T13:22:16.552Z,41.51
2022-08-28T13:24:33.637Z,42.96
2022-08-28T13:26:50.870Z,42.36
2022-08-28T13:29:07.907Z,42.93
2022-08-28T13:31:24.979Z,43.14
2022-08-28T13:33:41.915Z,41.45
2022-08-28T13:35:59.153Z,43.44
2022-08-28T13:38:16.126Z,42.74
2022-08-28T13:43:10.174Z,43.41
2022-08-28T13:45:31.512Z,43.16
2022-08-28T13:48:00.330Z,43.76
2022-08-28T13:50:17.675Z,44.18
2022-08-28T13:52:34.936Z,44.56
2022-08-28T13:54:53.152Z,42.20
2022-08-28T13:57:10.183Z,41.65
2022-08-28T13:59:28.224Z,42.99
2022-08-28T14:01:45.270Z,41.28
2022-08-28T14:04:02.269Z,42.95
2022-08-28T14:06:19.326Z,41.83
2022-08-28T14:08:39.894Z,42.98
2022-08-28T14:10:56.801Z,42.93
2022-08-28T14:13:13.986Z,41.86
2022-08-28T14:15:31.135Z,40.86
2022-08-28T14:17:48.066Z,41.20
2022-08-28T14:20:05.010Z,41.49
2022-08-28T14:22:22.113Z,40.58
2022-08-28T14:24:39.392Z,41.49
2022-08-28T14:26:56.455Z,41.24
2022-08-28T14:29:13.705Z,41.95
2022-08-28T14:31:30.694Z,41.49
2022-08-28T14:33:47.861Z,41.95
2022-08-28T14:36:05.959Z,42.00
2022-08-28T14:38:23.387Z,42.96
2022-08-28T14:40:40.484Z,42.51
2022-08-28T14:42:57.909Z,42.71
2022-08-28T14:45:14.930Z,42.23
2022-08-28T14:47:32.010Z,41.69
2022-08-28T14:49:49.085Z,41.66
2022-08-28T14:52:06.070Z,39.65
2022-08-28T14:54:23.159Z,40.76
2022-08-28T14:56:40.172Z,40.92
2022-08-28T14:58:57.145Z,41.40
2022-08-28T15:01:14.190Z,41.35
2022-08-28T15:03:31.211Z,40.83
2022-08-28T15:05:48.327Z,40.30
2022-08-28T15:08:05.331Z,40.08
2022-08-28T15:10:22.262Z,39.07
2022-08-28T15:12:39.332Z,39.40
2022-08-28T15:14:59.566Z,38.42
2022-08-28T15:17:16.528Z,39.37
2022-08-28T15:19:33.633Z,41.09
2022-08-28T15:21:50.675Z,41.47
2022-08-28T15:24:08.928Z,40.76
2022-08-28T15:26:26.274Z,40.96
2022-08-28T15:28:43.509Z,40.90
2022-08-28T15:31:00.599Z,40.82
2022-08-28T15:33:17.521Z,40.97
2022-08-28T15:35:34.493Z,40.77
2022-08-28T15:37:51.492Z,40.72
2022-08-28T15:40:08.462Z,39.85
2022-08-28T15:42:25.455Z,39.65
2022-08-28T15:44:42.523Z,39.27
2022-08-28T15:46:59.526Z,40.19
2022-08-28T15:49:16.823Z,40.69
2022-08-28T15:51:33.956Z,39.79
2022-08-28T15:53:51.209Z,39.77
2022-08-28T15:56:08.556Z,40.07
2022-08-28T15:58:25.556Z,39.05
2022-08-28T16:00:42.913Z,40.06
2022-08-28T16:02:59.922Z,39.80
2022-08-28T16:05:17.203Z,40.08
2022-08-28T16:07:35.552Z,39.83
2022-08-28T16:09:52.884Z,40.51
2022-08-28T16:12:09.849Z,39.36
2022-08-28T16:14:27.139Z,39.44
2022-08-28T16:16:46.414Z,39.28
2022-08-28T16:19:06.192Z,38.63
2022-08-28T16:21:23.124Z,38.78
2022-08-28T16:23:44.564Z,39.08
2022-08-28T16:26:01.518Z,38.29
2022-08-28T16:28:18.558Z,40.37
2022-08-28T16:30:36.100Z,39.83
2022-08-28T16:32:54.189Z,41.34
2022-08-28T16:35:11.387Z,40.67
2022-08-28T16:37:36.323Z,40.63
2022-08-28T16:39:57.082Z,40.75
2022-08-28T16:42:14.158Z,40.18
2022-08-28T16:44:32.090Z,41.08
2022-08-28T16:46:49.418Z,39.41
2022-08-28T16:49:06.402Z,38.86
2022-08-28T16:51:23.543Z,38.91
2022-08-28T16:53:40.861Z,40.33
2022-08-28T16:55:58.153Z,38.88
2022-08-28T16:58:17.129Z,40.08
2022-08-28T17:00:34.619Z,40.10
2022-08-28T17:03:02.635Z,40.82
2022-08-28T17:05:19.953Z,40.08
2022-08-28T17:07:36.996Z,41.25
2022-08-28T17:09:54.241Z,42.12
2022-08-28T17:12:11.598Z,41.36
2022-08-28T17:14:29.774Z,40.70
2022-08-28T17:16:46.731Z,41.50
2022-08-28T17:19:04.130Z,41.04
2022-08-28T17:21:22.210Z,39.73
2022-08-28T17:23:39.462Z,41.22
2022-08-28T17:25:56.475Z,41.29
2022-08-28T17:28:13.640Z,40.99
2022-08-28T17:30:30.987Z,41.90
2022-08-28T17:32:48.275Z,43.32
2022-08-28T17:35:05.263Z,43.06
2022-08-28T17:37:23.148Z,41.89
2022-08-28T17:39:40.117Z,43.19
2022-08-28T17:41:57.014Z,42.77
2022-08-28T17:44:14.268Z,43.85
2022-08-28T17:46:35.386Z,43.87
2022-08-28T17:48:56.039Z,45.58
2022-08-28T17:51:13.441Z,46.05
2022-08-28T17:53:33.361Z,46.43
2022-08-28T17:55:50.492Z,47.15
2022-08-28T17:58:07.827Z,47.46
2022-08-28T18:00:25.143Z,47.69
2022-08-28T18:02:42.214Z,48.92
2022-08-28T18:04:59.164Z,48.28
2022-08-28T18:07:18.676Z,48.27
2022-08-28T18:09:35.983Z,48.33
2022-08-28T18:11:53.080Z,48.87
2022-08-28T18:14:11.187Z,48.97
2022-08-28T18:16:31.348Z,49.90
2022-08-28T18:18:48.726Z,49.01
2022-08-28T18:21:06.057Z,51.22
2022-08-28T18:23:23.374Z,51.38
2022-08-28T18:25:40.645Z,50.29
2022-08-28T18:27:59.474Z,49.59
2022-08-28T18:30:16.852Z,49.91
2022-08-28T18:32:34.929Z,50.31
2022-08-28T18:34:52.053Z,50.75
2022-08-28T18:37:09.296Z,50.85
2022-08-28T18:39:29.459Z,52.69
2022-08-28T18:41:47.024Z,53.07
2022-08-28T18:44:04.855Z,53.08
2022-08-28T18:46:23.170Z,52.61
2022-08-28T18:48:40.192Z,52.14
2022-08-28T18:50:57.152Z,54.01
2022-08-28T18:53:14.143Z,54.42
2022-08-28T18:55:32.056Z,53.55
2022-08-28T18:57:49.397Z,54.15
2022-08-28T19:00:09.022Z,55.24
2022-08-28T19:02:26.033Z,55.14
2022-08-28T19:04:43.135Z,55.02
2022-08-28T19:07:00.110Z,56.40
2022-08-28T19:09:18.604Z,56.02
2022-08-28T19:11:38.054Z,56.33
2022-08-28T19:13:56.413Z,57.18
2022-08-28T19:16:13.419Z,57.31
2022-08-28T19:18:30.715Z,57.25
2022-08-28T19:20:47.743Z,58.03
2022-08-28T19:23:04.697Z,57.98
2022-08-28T19:25:23.327Z,58.23
2022-08-28T19:27:46.026Z,58.31
2022-08-28T19:30:06.007Z,59.06
2022-08-28T19:32:27.146Z,59.01
2022-08-28T19:34:44.227Z,59.64
2022-08-28T19:37:01.582Z,58.91
2022-08-28T19:39:18.810Z,59.94
2022-08-28T19:41:36.109Z,59.79
2022-08-28T19:43:53.342Z,60.86
2022-08-28T19:46:14.088Z,60.23
2022-08-28T19:48:36.993Z,60.25
2022-08-28T19:50:54.284Z,60.75
2022-08-28T19:53:11.296Z,60.07
2022-08-28T19:55:28.290Z,61.50
2022-08-28T19:57:46.372Z,61.03
2022-08-28T20:00:03.583Z,62.24
2022-08-28T20:02:20.890Z,62.07
2022-08-28T20:04:37.975Z,62.12
2022-08-28T20:06:55.018Z,61.41
2022-08-28T20:09:14.343Z,62.18
2022-08-28T20:11:31.286Z,62.63
2022-08-28T20:13:48.581Z,63.34
2022-08-28T20:16:05.736Z,64.56
2022-08-28T20:18:23.675Z,63.03
2022-08-28T20:20:40.735Z,63.64
2022-08-28T20:22:58.019Z,63.78
2022-08-28T20:25:16.314Z,64.46
2022-08-28T20:27:33.559Z,63.69
2022-08-28T20:29:50.601Z,64.37
2022-08-28T20:32:07.631Z,65.42
2022-08-28T20:34:24.592Z,65.85
2022-08-28T20:36:41.926Z,64.41
2022-08-28T20:38:59.261Z,64.20
2022-08-28T20:41:16.315Z,64.92
2022-08-28T20:43:33.947Z,64.30
2022-08-28T20:45:51.310Z,65.40
2022-08-28T20:48:08.317Z,66.08
2022-08-28T20:50:25.424Z,66.13
2022-08-28T20:52:42.700Z,65.77
2022-08-28T20:54:59.979Z,65.21
2022-08-28T20:57:17.518Z,65.09
2022-08-28T20:59:40.129Z,65.36
2022-08-28T21:01:57.549Z,65.55
2022-08-28T21:04:14.457Z,65.94
2022-08-28T21:06:31.759Z,66.61
2022-08-28T21:08:48.805Z,66.23
2022-08-28T21:11:06.449Z,67.48
2022-08-28T21:13:23.410Z,65.24
2022-08-28T21:15:40.314Z,65.71
2022-08-28T21:17:57.261Z,66.34
2022-08-28T21:20:14.207Z,65.07
2022-08-28T21:22:31.611Z,66.06
2022-08-28T21:24:48.734Z,66.77
2022-08-28T21:27:06.084Z,67.37
2022-08-28T21:29:26.532Z,66.40
2022-08-28T21:31:43.853Z,66.75
2022-08-28T21:34:00.949Z,66.29
2022-08-28T21:36:17.943Z,67.01
2022-08-28T21:38:36.261Z,67.09
2022-08-28T21:40:53.556Z,66.25
2022-08-28T21:43:10.778Z,67.32
2022-08-28T21:45:27.844Z,67.81
2022-08-28T21:47:44.743Z,67.56
2022-08-28T21:50:01.735Z,67.24
2022-08-28T21:52:19.014Z,67.24
2022-08-28T21:54:36.043Z,66.75
2022-08-28T21:56:58.758Z,67.02
2022-08-28T21:59:16.326Z,67.82
2022-08-28T22:01:33.373Z,68.04
2022-08-28T22:03:50.773Z,67.74
2022-08-28T22:06:08.048Z,68.12
2022-08-28T22:08:25.065Z,67.89
2022-08-28T22:10:41.997Z,68.45
2022-08-28T22:12:58.935Z,68.31
2022-08-28T22:15:16.183Z,68.67
2022-08-28T22:17:33.495Z,68.25
2022-08-28T22:19:50.543Z,68.44
2022-08-28T22:22:07.593Z,68.70
2022-08-28T22:24:24.569Z,68.93
2022-08-28T22:26:41.590Z,69.26
2022-08-28T22:28:58.878Z,69.19
2022-08-28T22:31:16.097Z,69.13
2022-08-28T22:33:35.006Z,69.19
2022-08-28T22:35:52.283Z,69.16
2022-08-28T22:38:09.231Z,69.34
2022-08-28T22:40:27.177Z,69.59
2022-08-28T22:42:44.239Z,69.81
2022-08-28T22:45:01.369Z,69.47
2022-08-28T22:47:18.994Z,69.81
2022-08-28T22:49:39.633Z,69.82
2022-08-28T22:51:57.176Z,70.35
2022-08-28T22:54:14.827Z,70.09
2022-08-28T22:56:31.805Z,70.48
2022-08-28T22:58:48.904Z,70.01
2022-08-28T23:01:05.984Z,70.82
2022-08-28T23:03:26.196Z,70.13
2022-08-28T23:05:46.276Z,70.41
2022-08-28T23:08:04.239Z,71.44
2022-08-28T23:10:32.093Z,71.46
2022-08-28T23:12:58.228Z,71.73
2022-08-28T23:15:15.317Z,71.34
2022-08-28T23:17:32.440Z,72.12
2022-08-28T23:19:50.300Z,71.46
2022-08-28T23:22:08.374Z,71.60
2022-08-28T23:24:25.551Z,72.13
2022-08-28T23:26:42.677Z,72.50
2022-08-28T23:28:59.787Z,72.12
2022-08-28T23:31:16.819Z,72.37
2022-08-28T23:33:33.895Z,71.77
2022-08-28T23:35:52.402Z,72.89
2022-08-28T23:38:09.492Z,71.79
2022-08-28T23:40:26.722Z,72.05
2022-08-28T23:42:46.819Z,72.46
2022-08-28T23:45:05.956Z,71.82
2022-08-28T23:47:24.309Z,72.69
2022-08-28T23:49:42.722Z,72.73
2022-08-28T23:52:00.369Z,72.68
2022-08-28T23:54:20.788Z,74.26
2022-08-28T23:56:39.198Z,72.41
2022-08-28T23:58:56.105Z,74.10
